sensor_id;sensor_type;location;lat;lon;timestamp;P1;durP1;ratioP1;P2;durP2;ratioP2
31308;SDS011;17936;52.446;10.840;2022-10-13T00:01:06;10.13;;;5.75;;
31308;SDS011;17936;52.446;10.840;2022-10-13T00:03:36;8.55;;;5.50;;
31308;SDS011;17936;52.446;10.840;2022-10-13T00:06:03;14.95;;;5.43;;
31308;SDS011;17936;52.446;10.840;2022-10-13T00:08:31;11.27;;;5.20;;
31308;SDS011;17936;52.446;10.840;2022-10-13T00:10:57;12.65;;;5.93;;
31308;SDS011;17936;52.446;10.840;2022-10-13T00:13:24;11.95;;;5.47;;
31308;SDS011;17936;52.446;10.840;2022-10-13T00:15:50;12.95;;;6.15;;
31308;SDS011;17936;52.446;10.840;2022-10-13T00:18:15;10.85;;;5.25;;
31308;SDS011;17936;52.446;10.840;2022-10-13T00:23:23;10.70;;;5.45;;
31308;SDS011;17936;52.446;10.840;2022-10-13T00:25:49;9.75;;;5.05;;
31308;SDS011;17936;52.446;10.840;2022-10-13T00:28:15;14.00;;;5.25;;
31308;SDS011;17936;52.446;10.840;2022-10-13T00:30:43;15.73;;;5.82;;
31308;SDS011;17936;52.446;10.840;2022-10-13T00:33:09;14.98;;;5.57;;
31308;SDS011;17936;52.446;10.840;2022-10-13T00:35:45;12.02;;;5.60;;
31308;SDS011;17936;52.446;10.840;2022-10-13T00:38:12;11.90;;;5.50;;
31308;SDS011;17936;52.446;10.840;2022-10-13T00:40:49;11.10;;;5.07;;
31308;SDS011;17936;52.446;10.840;2022-10-13T00:43:20;15.75;;;6.20;;
31308;SDS011;17936;52.446;10.840;2022-10-13T00:45:47;10.25;;;5.22;;
31308;SDS011;17936;52.446;10.840;2022-10-13T00:48:14;13.30;;;5.20;;
31308;SDS011;17936;52.446;10.840;2022-10-13T00:50:52;14.52;;;5.60;;
31308;SDS011;17936;52.446;10.840;2022-10-13T00:53:19;11.60;;;5.03;;
31308;SDS011;17936;52.446;10.840;2022-10-13T00:55:47;11.30;;;5.05;;
31308;SDS011;17936;52.446;10.840;2022-10-13T00:58:14;10.93;;;5.03;;
31308;SDS011;17936;52.446;10.840;2022-10-13T01:00:43;15.30;;;5.25;;
31308;SDS011;17936;52.446;10.840;2022-10-13T01:03:12;10.13;;;5.28;;
31308;SDS011;17936;52.446;10.840;2022-10-13T01:05:38;16.05;;;4.93;;
31308;SDS011;17936;52.446;10.840;2022-10-13T01:08:05;15.63;;;6.75;;
31308;SDS011;17936;52.446;10.840;2022-10-13T01:10:34;10.57;;;5.72;;
31308;SDS011;17936;52.446;10.840;2022-10-13T01:13:22;9.10;;;4.95;;
31308;SDS011;17936;52.446;10.840;2022-10-13T01:15:59;10.23;;;4.43;;
31308;SDS011;17936;52.446;10.840;2022-10-13T01:18:36;12.15;;;5.32;;
31308;SDS011;17936;52.446;10.840;2022-10-13T01:21:23;9.82;;;4.95;;
31308;SDS011;17936;52.446;10.840;2022-10-13T01:26:58;9.07;;;4.55;;
31308;SDS011;17936;52.446;10.840;2022-10-13T01:32:27;10.52;;;4.20;;
31308;SDS011;17936;52.446;10.840;2022-10-13T01:43:34;13.07;;;4.88;;
31308;SDS011;17936;52.446;10.840;2022-10-13T01:48:35;7.43;;;4.80;;
31308;SDS011;17936;52.446;10.840;2022-10-13T01:51:03;11.27;;;4.72;;
31308;SDS011;17936;52.446;10.840;2022-10-13T01:53:31;8.40;;;4.60;;
31308;SDS011;17936;52.446;10.840;2022-10-13T01:55:57;8.70;;;4.90;;
31308;SDS011;17936;52.446;10.840;2022-10-13T01:58:25;11.50;;;4.35;;
31308;SDS011;17936;52.446;10.840;2022-10-13T02:00:57;11.13;;;4.60;;
31308;SDS011;17936;52.446;10.840;2022-10-13T02:03:32;11.32;;;4.72;;
31308;SDS011;17936;52.446;10.840;2022-10-13T02:06:11;12.02;;;4.45;;
31308;SDS011;17936;52.446;10.840;2022-10-13T02:11:27;8.77;;;4.22;;
31308;SDS011;17936;52.446;10.840;2022-10-13T02:16:28;6.47;;;4.05;;
31308;SDS011;17936;52.446;10.840;2022-10-13T02:18:57;6.97;;;4.35;;
31308;SDS011;17936;52.446;10.840;2022-10-13T02:21:26;10.65;;;4.30;;
31308;SDS011;17936;52.446;10.840;2022-10-13T02:23:52;7.72;;;4.25;;
31308;SDS011;17936;52.446;10.840;2022-10-13T02:26:17;10.82;;;4.47;;
31308;SDS011;17936;52.446;10.840;2022-10-13T02:28:43;11.43;;;4.65;;
31308;SDS011;17936;52.446;10.840;2022-10-13T02:31:08;7.90;;;4.53;;
31308;SDS011;17936;52.446;10.840;2022-10-13T02:33:34;8.20;;;4.25;;
31308;SDS011;17936;52.446;10.840;2022-10-13T02:35:59;8.68;;;4.55;;
31308;SDS011;17936;52.446;10.840;2022-10-13T02:38:25;7.47;;;4.07;;
31308;SDS011;17936;52.446;10.840;2022-10-13T02:40:50;7.70;;;4.25;;
31308;SDS011;17936;52.446;10.840;2022-10-13T02:43:16;8.10;;;4.38;;
31308;SDS011;17936;52.446;10.840;2022-10-13T02:45:42;9.20;;;4.30;;
31308;SDS011;17936;52.446;10.840;2022-10-13T02:48:07;10.52;;;4.60;;
31308;SDS011;17936;52.446;10.840;2022-10-13T02:50:33;10.88;;;5.20;;
31308;SDS011;17936;52.446;10.840;2022-10-13T02:52:59;11.93;;;4.93;;
31308;SDS011;17936;52.446;10.840;2022-10-13T02:55:24;13.40;;;5.30;;
31308;SDS011;17936;52.446;10.840;2022-10-13T02:57:50;11.32;;;4.78;;
31308;SDS011;17936;52.446;10.840;2022-10-13T03:00:15;7.18;;;3.85;;
31308;SDS011;17936;52.446;10.840;2022-10-13T03:02:41;8.90;;;4.25;;
31308;SDS011;17936;52.446;10.840;2022-10-13T03:05:07;7.07;;;4.05;;
31308;SDS011;17936;52.446;10.840;2022-10-13T03:07:33;6.82;;;3.90;;
31308;SDS011;17936;52.446;10.840;2022-10-13T03:09:58;9.15;;;4.05;;
31308;SDS011;17936;52.446;10.840;2022-10-13T03:12:24;8.05;;;4.25;;
31308;SDS011;17936;52.446;10.840;2022-10-13T03:14:49;7.13;;;3.95;;
31308;SDS011;17936;52.446;10.840;2022-10-13T03:17:16;8.02;;;4.00;;
31308;SDS011;17936;52.446;10.840;2022-10-13T03:19:41;5.72;;;3.33;;
31308;SDS011;17936;52.446;10.840;2022-10-13T03:22:07;5.57;;;3.83;;
31308;SDS011;17936;52.446;10.840;2022-10-13T03:24:33;6.13;;;3.70;;
31308;SDS011;17936;52.446;10.840;2022-10-13T03:26:58;8.48;;;3.90;;
31308;SDS011;17936;52.446;10.840;2022-10-13T03:29:24;5.35;;;3.08;;
31308;SDS011;17936;52.446;10.840;2022-10-13T03:31:49;7.57;;;3.78;;
31308;SDS011;17936;52.446;10.840;2022-10-13T03:34:15;9.48;;;3.35;;
31308;SDS011;17936;52.446;10.840;2022-10-13T03:36:40;7.03;;;3.55;;
31308;SDS011;17936;52.446;10.840;2022-10-13T03:39:06;6.57;;;3.95;;
31308;SDS011;17936;52.446;10.840;2022-10-13T03:41:31;6.93;;;4.05;;
31308;SDS011;17936;52.446;10.840;2022-10-13T03:43:57;8.57;;;3.65;;
31308;SDS011;17936;52.446;10.840;2022-10-13T03:46:23;7.75;;;4.40;;
31308;SDS011;17936;52.446;10.840;2022-10-13T03:48:52;16.08;;;4.80;;
31308;SDS011;17936;52.446;10.840;2022-10-13T03:51:19;11.85;;;4.82;;
31308;SDS011;17936;52.446;10.840;2022-10-13T03:53:46;10.45;;;4.45;;
31308;SDS011;17936;52.446;10.840;2022-10-13T03:56:13;11.32;;;4.18;;
31308;SDS011;17936;52.446;10.840;2022-10-13T03:58:41;10.38;;;4.75;;
31308;SDS011;17936;52.446;10.840;2022-10-13T04:01:07;10.23;;;4.35;;
31308;SDS011;17936;52.446;10.840;2022-10-13T04:03:33;10.27;;;4.97;;
31308;SDS011;17936;52.446;10.840;2022-10-13T04:05:59;8.32;;;4.28;;
31308;SDS011;17936;52.446;10.840;2022-10-13T04:08:26;8.80;;;4.32;;
31308;SDS011;17936;52.446;10.840;2022-10-13T04:11:03;11.68;;;4.45;;
31308;SDS011;17936;52.446;10.840;2022-10-13T04:13:30;8.80;;;4.10;;
31308;SDS011;17936;52.446;10.840;2022-10-13T04:16:16;10.60;;;4.30;;
31308;SDS011;17936;52.446;10.840;2022-10-13T04:18:43;10.30;;;4.32;;
31308;SDS011;17936;52.446;10.840;2022-10-13T04:21:10;9.70;;;4.45;;
31308;SDS011;17936;52.446;10.840;2022-10-13T04:23:37;12.13;;;4.38;;
31308;SDS011;17936;52.446;10.840;2022-10-13T04:26:04;11.60;;;4.43;;
31308;SDS011;17936;52.446;10.840;2022-10-13T04:28:30;10.20;;;5.32;;
31308;SDS011;17936;52.446;10.840;2022-10-13T04:30:59;11.95;;;4.90;;
31308;SDS011;17936;52.446;10.840;2022-10-13T04:33:28;9.85;;;5.13;;
31308;SDS011;17936;52.446;10.840;2022-10-13T04:35:54;10.00;;;4.78;;
31308;SDS011;17936;52.446;10.840;2022-10-13T04:38:19;11.55;;;4.68;;
31308;SDS011;17936;52.446;10.840;2022-10-13T04:40:45;9.05;;;4.32;;
31308;SDS011;17936;52.446;10.840;2022-10-13T04:43:10;9.07;;;4.07;;
31308;SDS011;17936;52.446;10.840;2022-10-13T04:45:36;12.00;;;4.50;;
31308;SDS011;17936;52.446;10.840;2022-10-13T04:48:01;9.05;;;4.45;;
31308;SDS011;17936;52.446;10.840;2022-10-13T04:50:27;7.88;;;4.43;;
31308;SDS011;17936;52.446;10.840;2022-10-13T04:52:52;8.05;;;4.00;;
31308;SDS011;17936;52.446;10.840;2022-10-13T04:55:18;9.00;;;4.68;;
31308;SDS011;17936;52.446;10.840;2022-10-13T04:57:43;10.10;;;4.13;;
31308;SDS011;17936;52.446;10.840;2022-10-13T05:00:09;9.50;;;4.43;;
31308;SDS011;17936;52.446;10.840;2022-10-13T05:02:35;6.80;;;4.45;;
31308;SDS011;17936;52.446;10.840;2022-10-13T05:05:01;11.30;;;5.10;;
31308;SDS011;17936;52.446;10.840;2022-10-13T05:07:27;9.38;;;4.85;;
31308;SDS011;17936;52.446;10.840;2022-10-13T05:09:54;8.52;;;4.32;;
31308;SDS011;17936;52.446;10.840;2022-10-13T05:12:19;11.35;;;5.05;;
31308;SDS011;17936;52.446;10.840;2022-10-13T05:14:44;8.05;;;4.43;;
31308;SDS011;17936;52.446;10.840;2022-10-13T05:17:10;11.60;;;5.50;;
31308;SDS011;17936;52.446;10.840;2022-10-13T05:19:35;12.85;;;5.82;;
31308;SDS011;17936;52.446;10.840;2022-10-13T05:22:01;13.80;;;5.25;;
31308;SDS011;17936;52.446;10.840;2022-10-13T05:24:29;11.38;;;5.50;;
31308;SDS011;17936;52.446;10.840;2022-10-13T05:27:01;8.75;;;5.20;;
31308;SDS011;17936;52.446;10.840;2022-10-13T05:29:30;9.90;;;4.60;;
31308;SDS011;17936;52.446;10.840;2022-10-13T05:31:56;12.05;;;5.50;;
31308;SDS011;17936;52.446;10.840;2022-10-13T05:34:21;11.73;;;5.75;;
31308;SDS011;17936;52.446;10.840;2022-10-13T05:36:47;11.30;;;5.18;;
31308;SDS011;17936;52.446;10.840;2022-10-13T05:39:12;16.05;;;4.32;;
31308;SDS011;17936;52.446;10.840;2022-10-13T05:41:38;9.13;;;4.43;;
31308;SDS011;17936;52.446;10.840;2022-10-13T05:44:04;7.47;;;4.18;;
31308;SDS011;17936;52.446;10.840;2022-10-13T05:46:31;8.63;;;5.50;;
31308;SDS011;17936;52.446;10.840;2022-10-13T05:48:57;11.05;;;5.28;;
31308;SDS011;17936;52.446;10.840;2022-10-13T05:51:27;11.18;;;5.30;;
31308;SDS011;17936;52.446;10.840;2022-10-13T05:54:01;12.15;;;6.28;;
31308;SDS011;17936;52.446;10.840;2022-10-13T05:56:31;13.70;;;6.88;;
31308;SDS011;17936;52.446;10.840;2022-10-13T05:59:03;10.68;;;6.55;;
31308;SDS011;17936;52.446;10.840;2022-10-13T06:01:31;10.32;;;6.35;;
31308;SDS011;17936;52.446;10.840;2022-10-13T06:04:01;10.57;;;6.43;;
31308;SDS011;17936;52.446;10.840;2022-10-13T06:06:29;23.27;;;7.53;;
31308;SDS011;17936;52.446;10.840;2022-10-13T06:08:55;17.38;;;7.55;;
31308;SDS011;17936;52.446;10.840;2022-10-13T06:11:20;17.25;;;7.63;;
31308;SDS011;17936;52.446;10.840;2022-10-13T06:13:46;14.77;;;7.68;;
31308;SDS011;17936;52.446;10.840;2022-10-13T06:16:11;13.98;;;7.72;;
31308;SDS011;17936;52.446;10.840;2022-10-13T06:18:37;17.63;;;9.25;;
31308;SDS011;17936;52.446;10.840;2022-10-13T06:21:02;15.38;;;7.20;;
31308;SDS011;17936;52.446;10.840;2022-10-13T06:23:28;12.30;;;7.53;;
31308;SDS011;17936;52.446;10.840;2022-10-13T06:25:53;20.02;;;8.13;;
31308;SDS011;17936;52.446;10.840;2022-10-13T06:28:19;13.77;;;8.38;;
31308;SDS011;17936;52.446;10.840;2022-10-13T06:30:46;17.92;;;8.63;;
31308;SDS011;17936;52.446;10.840;2022-10-13T06:33:17;13.48;;;7.50;;
31308;SDS011;17936;52.446;10.840;2022-10-13T06:35:43;16.38;;;8.45;;
31308;SDS011;17936;52.446;10.840;2022-10-13T06:38:08;17.13;;;8.68;;
31308;SDS011;17936;52.446;10.840;2022-10-13T06:40:33;20.58;;;10.13;;
31308;SDS011;17936;52.446;10.840;2022-10-13T06:42:59;29.08;;;9.90;;
31308;SDS011;17936;52.446;10.840;2022-10-13T06:45:24;18.20;;;9.52;;
31308;SDS011;17936;52.446;10.840;2022-10-13T06:47:51;21.67;;;9.85;;
31308;SDS011;17936;52.446;10.840;2022-10-13T06:50:18;25.70;;;9.57;;
31308;SDS011;17936;52.446;10.840;2022-10-13T06:52:43;21.70;;;9.70;;
31308;SDS011;17936;52.446;10.840;2022-10-13T06:55:09;21.15;;;9.25;;
31308;SDS011;17936;52.446;10.840;2022-10-13T06:57:34;18.73;;;9.95;;
31308;SDS011;17936;52.446;10.840;2022-10-13T07:00:00;17.48;;;10.77;;
31308;SDS011;17936;52.446;10.840;2022-10-13T07:02:25;23.00;;;9.85;;
31308;SDS011;17936;52.446;10.840;2022-10-13T07:04:51;22.33;;;10.55;;
31308;SDS011;17936;52.446;10.840;2022-10-13T07:07:16;25.88;;;12.55;;
31308;SDS011;17936;52.446;10.840;2022-10-13T07:09:42;20.58;;;11.70;;
31308;SDS011;17936;52.446;10.840;2022-10-13T07:12:07;23.08;;;12.10;;
31308;SDS011;17936;52.446;10.840;2022-10-13T07:14:33;21.13;;;11.23;;
31308;SDS011;17936;52.446;10.840;2022-10-13T07:16:58;18.27;;;10.68;;
31308;SDS011;17936;52.446;10.840;2022-10-13T07:19:25;24.50;;;12.15;;
31308;SDS011;17936;52.446;10.840;2022-10-13T07:21:51;24.15;;;12.45;;
31308;SDS011;17936;52.446;10.840;2022-10-13T07:24:16;41.72;;;20.98;;
31308;SDS011;17936;52.446;10.840;2022-10-13T07:26:42;35.72;;;18.83;;
31308;SDS011;17936;52.446;10.840;2022-10-13T07:29:07;33.25;;;17.40;;
31308;SDS011;17936;52.446;10.840;2022-10-13T07:31:33;25.40;;;13.15;;
31308;SDS011;17936;52.446;10.840;2022-10-13T07:33:59;22.30;;;12.25;;
31308;SDS011;17936;52.446;10.840;2022-10-13T07:36:24;20.90;;;11.40;;
31308;SDS011;17936;52.446;10.840;2022-10-13T07:38:51;28.05;;;11.95;;
31308;SDS011;17936;52.446;10.840;2022-10-13T07:41:17;25.60;;;12.35;;
31308;SDS011;17936;52.446;10.840;2022-10-13T07:43:42;17.58;;;10.98;;
31308;SDS011;17936;52.446;10.840;2022-10-13T07:46:09;24.48;;;10.48;;
31308;SDS011;17936;52.446;10.840;2022-10-13T07:48:36;19.50;;;10.65;;
31308;SDS011;17936;52.446;10.840;2022-10-13T07:51:03;27.00;;;11.80;;
31308;SDS011;17936;52.446;10.840;2022-10-13T07:53:30;25.52;;;10.23;;
31308;SDS011;17936;52.446;10.840;2022-10-13T07:55:58;21.50;;;11.27;;
31308;SDS011;17936;52.446;10.840;2022-10-13T07:58:24;17.70;;;10.45;;
31308;SDS011;17936;52.446;10.840;2022-10-13T08:00:56;23.35;;;10.57;;
31308;SDS011;17936;52.446;10.840;2022-10-13T08:03:23;19.20;;;10.65;;
31308;SDS011;17936;52.446;10.840;2022-10-13T08:05:48;17.50;;;10.05;;
31308;SDS011;17936;52.446;10.840;2022-10-13T08:08:14;19.95;;;10.98;;
31308;SDS011;17936;52.446;10.840;2022-10-13T08:10:39;17.23;;;10.02;;
31308;SDS011;17936;52.446;10.840;2022-10-13T08:13:05;22.02;;;9.57;;
31308;SDS011;17936;52.446;10.840;2022-10-13T08:15:30;21.10;;;10.48;;
31308;SDS011;17936;52.446;10.840;2022-10-13T08:17:56;23.17;;;9.55;;
31308;SDS011;17936;52.446;10.840;2022-10-13T08:20:21;15.50;;;9.02;;
31308;SDS011;17936;52.446;10.840;2022-10-13T08:22:47;20.80;;;8.90;;
31308;SDS011;17936;52.446;10.840;2022-10-13T08:25:12;23.75;;;9.52;;
31308;SDS011;17936;52.446;10.840;2022-10-13T08:27:38;17.60;;;8.48;;
31308;SDS011;17936;52.446;10.840;2022-10-13T08:30:03;14.88;;;8.55;;
31308;SDS011;17936;52.446;10.840;2022-10-13T08:32:30;19.30;;;8.90;;
31308;SDS011;17936;52.446;10.840;2022-10-13T08:34:55;19.05;;;9.00;;
31308;SDS011;17936;52.446;10.840;2022-10-13T08:37:21;20.15;;;9.73;;
31308;SDS011;17936;52.446;10.840;2022-10-13T08:39:46;14.50;;;7.93;;
31308;SDS011;17936;52.446;10.840;2022-10-13T08:42:19;22.30;;;9.63;;
31308;SDS011;17936;52.446;10.840;2022-10-13T08:44:52;15.52;;;8.27;;
31308;SDS011;17936;52.446;10.840;2022-10-13T08:47:39;14.80;;;8.40;;
31308;SDS011;17936;52.446;10.840;2022-10-13T08:50:13;19.08;;;10.30;;
31308;SDS011;17936;52.446;10.840;2022-10-13T08:52:43;15.35;;;8.88;;
31308;SDS011;17936;52.446;10.840;2022-10-13T08:57:57;15.05;;;9.13;;
31308;SDS011;17936;52.446;10.840;2022-10-13T09:00:23;12.95;;;7.95;;
31308;SDS011;17936;52.446;10.840;2022-10-13T09:02:49;20.30;;;8.43;;
31308;SDS011;17936;52.446;10.840;2022-10-13T09:05:20;22.40;;;9.00;;
31308;SDS011;17936;52.446;10.840;2022-10-13T09:08:00;13.80;;;7.75;;
31308;SDS011;17936;52.446;10.840;2022-10-13T09:10:27;13.52;;;7.03;;
31308;SDS011;17936;52.446;10.840;2022-10-13T09:12:53;15.15;;;7.85;;
31308;SDS011;17936;52.446;10.840;2022-10-13T09:15:19;14.35;;;7.45;;
31308;SDS011;17936;52.446;10.840;2022-10-13T09:17:45;18.45;;;8.20;;
31308;SDS011;17936;52.446;10.840;2022-10-13T09:20:35;12.60;;;7.85;;
31308;SDS011;17936;52.446;10.840;2022-10-13T09:23:02;20.73;;;7.07;;
31308;SDS011;17936;52.446;10.840;2022-10-13T09:25:40;20.73;;;8.75;;
31308;SDS011;17936;52.446;10.840;2022-10-13T09:28:13;15.63;;;8.25;;
31308;SDS011;17936;52.446;10.840;2022-10-13T09:30:42;18.08;;;8.32;;
31308;SDS011;17936;52.446;10.840;2022-10-13T09:33:13;17.55;;;7.55;;
31308;SDS011;17936;52.446;10.840;2022-10-13T09:35:46;16.40;;;7.13;;
31308;SDS011;17936;52.446;10.840;2022-10-13T09:38:32;17.60;;;7.43;;
31308;SDS011;17936;52.446;10.840;2022-10-13T09:41:01;17.88;;;7.65;;
31308;SDS011;17936;52.446;10.840;2022-10-13T09:43:31;12.75;;;6.35;;
31308;SDS011;17936;52.446;10.840;2022-10-13T09:45:59;16.33;;;6.85;;
31308;SDS011;17936;52.446;10.840;2022-10-13T09:48:30;19.58;;;6.25;;
31308;SDS011;17936;52.446;10.840;2022-10-13T09:50:58;12.10;;;6.75;;
31308;SDS011;17936;52.446;10.840;2022-10-13T09:53:29;18.52;;;6.75;;
31308;SDS011;17936;52.446;10.840;2022-10-13T09:56:06;14.68;;;7.22;;
31308;SDS011;17936;52.446;10.840;2022-10-13T09:58:52;15.10;;;6.53;;
31308;SDS011;17936;52.446;10.840;2022-10-13T10:01:39;14.43;;;5.85;;
31308;SDS011;17936;52.446;10.840;2022-10-13T10:04:09;14.70;;;6.18;;
31308;SDS011;17936;52.446;10.840;2022-10-13T10:06:38;13.10;;;5.93;;
31308;SDS011;17936;52.446;10.840;2022-10-13T10:09:08;13.32;;;5.38;;
31308;SDS011;17936;52.446;10.840;2022-10-13T10:11:46;15.07;;;5.95;;
31308;SDS011;17936;52.446;10.840;2022-10-13T10:14:21;22.70;;;6.40;;
31308;SDS011;17936;52.446;10.840;2022-10-13T10:16:53;10.48;;;5.38;;
31308;SDS011;17936;52.446;10.840;2022-10-13T10:19:25;11.25;;;5.45;;
31308;SDS011;17936;52.446;10.840;2022-10-13T10:24:52;15.82;;;6.03;;
31308;SDS011;17936;52.446;10.840;2022-10-13T10:27:27;13.43;;;6.20;;
31308;SDS011;17936;52.446;10.840;2022-10-13T10:30:01;16.58;;;6.75;;
31308;SDS011;17936;52.446;10.840;2022-10-13T10:35:12;15.90;;;6.90;;
31308;SDS011;17936;52.446;10.840;2022-10-13T10:38:02;12.93;;;6.43;;
31308;SDS011;17936;52.446;10.840;2022-10-13T10:41:00;12.20;;;5.88;;
31308;SDS011;17936;52.446;10.840;2022-10-13T10:43:59;12.93;;;6.50;;
31308;SDS011;17936;52.446;10.840;2022-10-13T10:46:39;15.00;;;6.40;;
31308;SDS011;17936;52.446;10.840;2022-10-13T10:49:15;11.48;;;5.68;;
31308;SDS011;17936;52.446;10.840;2022-10-13T10:51:50;15.70;;;6.00;;
31308;SDS011;17936;52.446;10.840;2022-10-13T10:57:18;12.90;;;5.15;;
31308;SDS011;17936;52.446;10.840;2022-10-13T11:00:00;10.25;;;4.85;;
31308;SDS011;17936;52.446;10.840;2022-10-13T11:11:47;10.30;;;4.95;;
31308;SDS011;17936;52.446;10.840;2022-10-13T11:13:50;15.57;;;6.00;;
31308;SDS011;17936;52.446;10.840;2022-10-13T11:16:24;11.98;;;5.35;;
31308;SDS011;17936;52.446;10.840;2022-10-13T11:22:09;10.30;;;5.05;;
31308;SDS011;17936;52.446;10.840;2022-10-13T11:34:57;13.35;;;4.60;;
31308;SDS011;17936;52.446;10.840;2022-10-13T11:37:51;13.23;;;4.55;;
31308;SDS011;17936;52.446;10.840;2022-10-13T11:54:30;14.82;;;4.07;;
31308;SDS011;17936;52.446;10.840;2022-10-13T11:57:21;10.43;;;3.72;;
31308;SDS011;17936;52.446;10.840;2022-10-13T11:59:52;10.32;;;4.25;;
31308;SDS011;17936;52.446;10.840;2022-10-13T12:02:20;12.23;;;3.90;;
31308;SDS011;17936;52.446;10.840;2022-10-13T12:05:00;8.48;;;3.53;;
31308;SDS011;17936;52.446;10.840;2022-10-13T12:07:31;12.05;;;4.13;;
31308;SDS011;17936;52.446;10.840;2022-10-13T12:10:00;9.55;;;3.72;;
31308;SDS011;17936;52.446;10.840;2022-10-13T12:12:28;10.75;;;3.80;;
31308;SDS011;17936;52.446;10.840;2022-10-13T12:14:55;13.80;;;3.67;;
31308;SDS011;17936;52.446;10.840;2022-10-13T12:17:26;10.60;;;2.95;;
31308;SDS011;17936;52.446;10.840;2022-10-13T12:19:52;9.73;;;3.22;;
31308;SDS011;17936;52.446;10.840;2022-10-13T12:22:20;10.98;;;3.53;;
31308;SDS011;17936;52.446;10.840;2022-10-13T12:27:18;6.07;;;2.90;;
31308;SDS011;17936;52.446;10.840;2022-10-13T12:29:45;11.70;;;3.67;;
31308;SDS011;17936;52.446;10.840;2022-10-13T12:32:21;8.15;;;3.33;;
31308;SDS011;17936;52.446;10.840;2022-10-13T12:34:49;7.28;;;2.65;;
31308;SDS011;17936;52.446;10.840;2022-10-13T12:37:23;8.38;;;3.13;;
31308;SDS011;17936;52.446;10.840;2022-10-13T12:39:55;7.35;;;3.08;;
31308;SDS011;17936;52.446;10.840;2022-10-13T12:42:32;6.68;;;2.83;;
31308;SDS011;17936;52.446;10.840;2022-10-13T12:45:00;7.35;;;2.75;;
31308;SDS011;17936;52.446;10.840;2022-10-13T12:47:46;12.13;;;3.60;;
31308;SDS011;17936;52.446;10.840;2022-10-13T12:55:45;6.38;;;2.70;;
31308;SDS011;17936;52.446;10.840;2022-10-13T12:58:17;5.25;;;2.92;;
31308;SDS011;17936;52.446;10.840;2022-10-13T13:00:53;7.15;;;2.72;;
31308;SDS011;17936;52.446;10.840;2022-10-13T13:03:29;13.18;;;3.58;;
31308;SDS011;17936;52.446;10.840;2022-10-13T13:06:19;11.02;;;3.20;;
31308;SDS011;17936;52.446;10.840;2022-10-13T13:09:05;12.50;;;3.63;;
31308;SDS011;17936;52.446;10.840;2022-10-13T13:11:39;10.90;;;3.30;;
31308;SDS011;17936;52.446;10.840;2022-10-13T13:14:21;5.03;;;2.50;;
31308;SDS011;17936;52.446;10.840;2022-10-13T13:19:51;7.40;;;3.00;;
31308;SDS011;17936;52.446;10.840;2022-10-13T13:22:18;6.53;;;2.78;;
31308;SDS011;17936;52.446;10.840;2022-10-13T13:24:43;8.18;;;3.10;;
31308;SDS011;17936;52.446;10.840;2022-10-13T13:27:17;5.72;;;2.80;;
31308;SDS011;17936;52.446;10.840;2022-10-13T13:29:44;11.57;;;3.35;;
31308;SDS011;17936;52.446;10.840;2022-10-13T13:32:11;9.38;;;3.50;;
31308;SDS011;17936;52.446;10.840;2022-10-13T13:34:41;11.48;;;2.97;;
31308;SDS011;17936;52.446;10.840;2022-10-13T13:37:24;13.52;;;3.38;;
31308;SDS011;17936;52.446;10.840;2022-10-13T13:39:53;12.57;;;3.28;;
31308;SDS011;17936;52.446;10.840;2022-10-13T13:42:19;9.32;;;2.95;;
31308;SDS011;17936;52.446;10.840;2022-10-13T13:44:45;6.35;;;2.88;;
31308;SDS011;17936;52.446;10.840;2022-10-13T13:47:20;8.73;;;3.70;;
31308;SDS011;17936;52.446;10.840;2022-10-13T13:49:47;9.30;;;2.95;;
31308;SDS011;17936;52.446;10.840;2022-10-13T13:52:14;7.47;;;3.00;;
31308;SDS011;17936;52.446;10.840;2022-10-13T13:54:41;11.40;;;3.30;;
31308;SDS011;17936;52.446;10.840;2022-10-13T13:57:07;8.23;;;3.15;;
31308;SDS011;17936;52.446;10.840;2022-10-13T13:59:34;8.38;;;3.42;;
31308;SDS011;17936;52.446;10.840;2022-10-13T14:02:00;6.68;;;3.10;;
31308;SDS011;17936;52.446;10.840;2022-10-13T14:04:25;11.23;;;3.75;;
31308;SDS011;17936;52.446;10.840;2022-10-13T14:06:51;11.52;;;3.92;;
31308;SDS011;17936;52.446;10.840;2022-10-13T14:09:17;8.60;;;3.88;;
31308;SDS011;17936;52.446;10.840;2022-10-13T14:11:42;8.32;;;3.70;;
31308;SDS011;17936;52.446;10.840;2022-10-13T14:14:07;9.65;;;4.07;;
31308;SDS011;17936;52.446;10.840;2022-10-13T14:16:33;9.05;;;3.58;;
31308;SDS011;17936;52.446;10.840;2022-10-13T14:18:58;8.52;;;3.88;;
31308;SDS011;17936;52.446;10.840;2022-10-13T14:21:24;7.03;;;3.78;;
31308;SDS011;17936;52.446;10.840;2022-10-13T14:23:49;18.08;;;3.88;;
31308;SDS011;17936;52.446;10.840;2022-10-13T14:26:15;10.00;;;4.25;;
31308;SDS011;17936;52.446;10.840;2022-10-13T14:28:41;13.02;;;4.03;;
31308;SDS011;17936;52.446;10.840;2022-10-13T14:31:07;11.18;;;4.20;;
31308;SDS011;17936;52.446;10.840;2022-10-13T14:33:33;14.18;;;3.70;;
31308;SDS011;17936;52.446;10.840;2022-10-13T14:36:00;9.35;;;4.50;;
31308;SDS011;17936;52.446;10.840;2022-10-13T14:38:26;10.07;;;4.55;;
31308;SDS011;17936;52.446;10.840;2022-10-13T14:40:56;11.45;;;4.45;;
31308;SDS011;17936;52.446;10.840;2022-10-13T14:43:23;10.75;;;4.55;;
31308;SDS011;17936;52.446;10.840;2022-10-13T14:45:48;15.35;;;5.00;;
31308;SDS011;17936;52.446;10.840;2022-10-13T14:48:14;8.73;;;4.45;;
31308;SDS011;17936;52.446;10.840;2022-10-13T14:50:39;10.25;;;4.30;;
31308;SDS011;17936;52.446;10.840;2022-10-13T14:53:05;8.52;;;4.00;;
31308;SDS011;17936;52.446;10.840;2022-10-13T14:55:33;9.70;;;4.00;;
31308;SDS011;17936;52.446;10.840;2022-10-13T14:57:59;8.43;;;3.88;;
31308;SDS011;17936;52.446;10.840;2022-10-13T15:00:24;9.02;;;4.32;;
31308;SDS011;17936;52.446;10.840;2022-10-13T15:02:50;11.43;;;4.35;;
31308;SDS011;17936;52.446;10.840;2022-10-13T15:05:15;7.88;;;4.10;;
31308;SDS011;17936;52.446;10.840;2022-10-13T15:07:41;8.45;;;4.32;;
31308;SDS011;17936;52.446;10.840;2022-10-13T15:10:06;10.18;;;5.25;;
31308;SDS011;17936;52.446;10.840;2022-10-13T15:12:32;8.80;;;4.30;;
31308;SDS011;17936;52.446;10.840;2022-10-13T15:14:58;11.55;;;4.50;;
31308;SDS011;17936;52.446;10.840;2022-10-13T15:17:23;7.80;;;3.97;;
31308;SDS011;17936;52.446;10.840;2022-10-13T15:19:49;6.90;;;3.85;;
31308;SDS011;17936;52.446;10.840;2022-10-13T15:22:14;13.80;;;4.28;;
31308;SDS011;17936;52.446;10.840;2022-10-13T15:24:40;13.23;;;4.43;;
31308;SDS011;17936;52.446;10.840;2022-10-13T15:27:06;7.15;;;3.83;;
31308;SDS011;17936;52.446;10.840;2022-10-13T15:29:31;10.68;;;3.90;;
31308;SDS011;17936;52.446;10.840;2022-10-13T15:32:05;23.98;;;5.95;;
31308;SDS011;17936;52.446;10.840;2022-10-13T15:34:32;19.90;;;5.88;;
31308;SDS011;17936;52.446;10.840;2022-10-13T15:36:58;17.50;;;5.32;;
31308;SDS011;17936;52.446;10.840;2022-10-13T15:39:23;10.50;;;4.97;;
31308;SDS011;17936;52.446;10.840;2022-10-13T15:41:49;15.93;;;6.10;;
31308;SDS011;17936;52.446;10.840;2022-10-13T15:44:14;21.45;;;5.13;;
31308;SDS011;17936;52.446;10.840;2022-10-13T15:46:43;6.60;;;4.00;;
31308;SDS011;17936;52.446;10.840;2022-10-13T15:49:08;9.63;;;4.47;;
31308;SDS011;17936;52.446;10.840;2022-10-13T15:51:34;10.30;;;4.30;;
31308;SDS011;17936;52.446;10.840;2022-10-13T15:53:59;12.75;;;4.72;;
31308;SDS011;17936;52.446;10.840;2022-10-13T15:56:25;7.88;;;3.88;;